sensor_id;sensor_type;location;lat;lon;timestamp;P1;durP1;ratioP1;P2;durP2;ratioP2
16326;SDS011;34812;49.846;9.610;2023-11-22T00:00:03;1.63;;;1.53;;
16326;SDS011;34812;49.846;9.610;2023-11-22T00:05:08;1.37;;;1.27;;
16326;SDS011;34812;49.846;9.610;2023-11-22T00:10:12;1.60;;;1.50;;
16326;SDS011;34812;49.846;9.610;2023-11-22T00:15:14;1.47;;;1.37;;
16326;SDS011;34812;49.846;9.610;2023-11-22T00:20:18;3.30;;;1.50;;
16326;SDS011;34812;49.846;9.610;2023-11-22T00:25:22;1.60;;;1.50;;
16326;SDS011;34812;49.846;9.610;2023-11-22T00:30:24;1.70;;;1.60;;
16326;SDS011;34812;49.846;9.610;2023-11-22T00:35:27;1.80;;;1.70;;
16326;SDS011;34812;49.846;9.610;2023-11-22T00:40:31;3.20;;;2.00;;
16326;SDS011;34812;49.846;9.610;2023-11-22T00:45:33;1.87;;;1.73;;
16326;SDS011;34812;49.846;9.610;2023-11-22T00:50:36;2.67;;;2.13;;
16326;SDS011;34812;49.846;9.610;2023-11-22T00:55:39;1.87;;;1.77;;
16326;SDS011;34812;49.846;9.610;2023-11-22T01:00:43;1.97;;;1.87;;
16326;SDS011;34812;49.846;9.610;2023-11-22T01:05:46;1.97;;;1.87;;
16326;SDS011;34812;49.846;9.610;2023-11-22T01:10:49;2.07;;;1.97;;
16326;SDS011;34812;49.846;9.610;2023-11-22T01:15:51;3.40;;;1.80;;
16326;SDS011;34812;49.846;9.610;2023-11-22T01:20:54;1.93;;;1.73;;
16326;SDS011;34812;49.846;9.610;2023-11-22T01:25:58;1.73;;;1.63;;
16326;SDS011;34812;49.846;9.610;2023-11-22T01:31:00;1.87;;;1.77;;
16326;SDS011;34812;49.846;9.610;2023-11-22T01:36:04;1.97;;;1.87;;
16326;SDS011;34812;49.846;9.610;2023-11-22T01:41:08;1.80;;;1.70;;
16326;SDS011;34812;49.846;9.610;2023-11-22T01:46:15;2.00;;;1.90;;
16326;SDS011;34812;49.846;9.610;2023-11-22T01:51:23;1.93;;;1.83;;
16326;SDS011;34812;49.846;9.610;2023-11-22T01:56:27;2.50;;;2.30;;
16326;SDS011;34812;49.846;9.610;2023-11-22T02:01:30;2.37;;;1.50;;
16326;SDS011;34812;49.846;9.610;2023-11-22T02:06:32;1.97;;;1.87;;
16326;SDS011;34812;49.846;9.610;2023-11-22T02:11:37;1.43;;;1.43;;
16326;SDS011;34812;49.846;9.610;2023-11-22T02:16:40;1.67;;;1.57;;
16326;SDS011;34812;49.846;9.610;2023-11-22T02:21:43;2.27;;;2.10;;
16326;SDS011;34812;49.846;9.610;2023-11-22T02:26:47;3.53;;;2.23;;
16326;SDS011;34812;49.846;9.610;2023-11-22T02:31:49;1.80;;;1.70;;
16326;SDS011;34812;49.846;9.610;2023-11-22T02:36:51;2.07;;;1.90;;
16326;SDS011;34812;49.846;9.610;2023-11-22T02:41:54;2.07;;;1.97;;
16326;SDS011;34812;49.846;9.610;2023-11-22T02:46:58;2.20;;;2.07;;
16326;SDS011;34812;49.846;9.610;2023-11-22T02:52:00;13.60;;;2.60;;
16326;SDS011;34812;49.846;9.610;2023-11-22T02:57:04;2.20;;;2.10;;
16326;SDS011;34812;49.846;9.610;2023-11-22T03:02:07;2.33;;;2.10;;
16326;SDS011;34812;49.846;9.610;2023-11-22T03:07:09;1.93;;;1.80;;
16326;SDS011;34812;49.846;9.610;2023-11-22T03:12:13;2.10;;;2.00;;
16326;SDS011;34812;49.846;9.610;2023-11-22T03:17:15;2.07;;;1.97;;
16326;SDS011;34812;49.846;9.610;2023-11-22T03:22:17;1.47;;;1.37;;
16326;SDS011;34812;49.846;9.610;2023-11-22T03:27:21;2.07;;;1.97;;
16326;SDS011;34812;49.846;9.610;2023-11-22T03:32:23;1.60;;;1.50;;
16326;SDS011;34812;49.846;9.610;2023-11-22T03:37:25;1.63;;;1.63;;
16326;SDS011;34812;49.846;9.610;2023-11-22T03:42:29;1.90;;;1.90;;
16326;SDS011;34812;49.846;9.610;2023-11-22T03:47:31;2.10;;;2.00;;
16326;SDS011;34812;49.846;9.610;2023-11-22T03:52:33;2.20;;;2.10;;
16326;SDS011;34812;49.846;9.610;2023-11-22T03:57:37;2.63;;;2.43;;
16326;SDS011;34812;49.846;9.610;2023-11-22T04:02:39;1.97;;;1.83;;
16326;SDS011;34812;49.846;9.610;2023-11-22T04:07:41;2.10;;;1.90;;
16326;SDS011;34812;49.846;9.610;2023-11-22T04:12:45;2.30;;;2.20;;
16326;SDS011;34812;49.846;9.610;2023-11-22T04:17:47;2.67;;;2.57;;
16326;SDS011;34812;49.846;9.610;2023-11-22T04:22:50;3.90;;;2.43;;
16326;SDS011;34812;49.846;9.610;2023-11-22T04:27:53;2.23;;;2.03;;
16326;SDS011;34812;49.846;9.610;2023-11-22T04:32:55;2.67;;;2.47;;
16326;SDS011;34812;49.846;9.610;2023-11-22T04:37:58;2.17;;;2.00;;
16326;SDS011;34812;49.846;9.610;2023-11-22T04:43:01;3.13;;;2.83;;
16326;SDS011;34812;49.846;9.610;2023-11-22T04:48:03;2.87;;;2.13;;
16326;SDS011;34812;49.846;9.610;2023-11-22T04:53:06;10.63;;;3.57;;
16326;SDS011;34812;49.846;9.610;2023-11-22T04:58:10;2.97;;;2.77;;
16326;SDS011;34812;49.846;9.610;2023-11-22T05:03:12;2.50;;;2.30;;
16326;SDS011;34812;49.846;9.610;2023-11-22T05:08:14;2.23;;;2.13;;
16326;SDS011;34812;49.846;9.610;2023-11-22T05:13:17;4.00;;;2.83;;
16326;SDS011;34812;49.846;9.610;2023-11-22T05:18:20;2.97;;;2.77;;
16326;SDS011;34812;49.846;9.610;2023-11-22T05:23:22;2.70;;;2.50;;
16326;SDS011;34812;49.846;9.610;2023-11-22T05:28:25;6.83;;;2.70;;
16326;SDS011;34812;49.846;9.610;2023-11-22T05:33:28;3.03;;;2.87;;
16326;SDS011;34812;49.846;9.610;2023-11-22T05:38:31;2.30;;;2.20;;
16326;SDS011;34812;49.846;9.610;2023-11-22T05:43:35;2.03;;;1.93;;
16326;SDS011;34812;49.846;9.610;2023-11-22T05:48:37;2.80;;;2.03;;
16326;SDS011;34812;49.846;9.610;2023-11-22T05:53:40;3.07;;;2.77;;
16326;SDS011;34812;49.846;9.610;2023-11-22T05:58:43;2.87;;;2.67;;
16326;SDS011;34812;49.846;9.610;2023-11-22T06:03:45;3.07;;;2.83;;
16326;SDS011;34812;49.846;9.610;2023-11-22T06:08:48;2.43;;;2.27;;
16326;SDS011;34812;49.846;9.610;2023-11-22T06:13:52;2.10;;;1.87;;
16326;SDS011;34812;49.846;9.610;2023-11-22T06:18:54;3.30;;;2.43;;
16326;SDS011;34812;49.846;9.610;2023-11-22T06:23:56;3.17;;;2.80;;
16326;SDS011;34812;49.846;9.610;2023-11-22T06:29:00;3.00;;;2.80;;
16326;SDS011;34812;49.846;9.610;2023-11-22T06:34:03;3.33;;;3.13;;
16326;SDS011;34812;49.846;9.610;2023-11-22T06:39:05;2.40;;;2.20;;
16326;SDS011;34812;49.846;9.610;2023-11-22T06:44:10;3.77;;;2.87;;
16326;SDS011;34812;49.846;9.610;2023-11-22T06:49:13;8.00;;;2.63;;
16326;SDS011;34812;49.846;9.610;2023-11-22T06:54:15;3.50;;;2.80;;
16326;SDS011;34812;49.846;9.610;2023-11-22T06:59:18;2.97;;;2.77;;
16326;SDS011;34812;49.846;9.610;2023-11-22T07:04:20;3.00;;;2.80;;
16326;SDS011;34812;49.846;9.610;2023-11-22T07:09:23;2.70;;;2.50;;
16326;SDS011;34812;49.846;9.610;2023-11-22T07:14:26;2.90;;;2.57;;
16326;SDS011;34812;49.846;9.610;2023-11-22T07:19:29;3.53;;;3.33;;
16326;SDS011;34812;49.846;9.610;2023-11-22T07:24:31;3.63;;;3.40;;
16326;SDS011;34812;49.846;9.610;2023-11-22T07:29:35;3.63;;;3.33;;
16326;SDS011;34812;49.846;9.610;2023-11-22T07:34:38;2.90;;;2.70;;
16326;SDS011;34812;49.846;9.610;2023-11-22T07:39:41;2.97;;;2.77;;
16326;SDS011;34812;49.846;9.610;2023-11-22T07:44:45;2.63;;;2.43;;
16326;SDS011;34812;49.846;9.610;2023-11-22T07:49:47;4.87;;;3.20;;
16326;SDS011;34812;49.846;9.610;2023-11-22T07:54:49;3.17;;;2.93;;
16326;SDS011;34812;49.846;9.610;2023-11-22T07:59:53;2.27;;;2.17;;
16326;SDS011;34812;49.846;9.610;2023-11-22T08:04:56;3.00;;;2.10;;
16326;SDS011;34812;49.846;9.610;2023-11-22T08:09:58;4.57;;;2.93;;
16326;SDS011;34812;49.846;9.610;2023-11-22T08:15:10;3.17;;;2.97;;
16326;SDS011;34812;49.846;9.610;2023-11-22T08:20:13;3.83;;;3.10;;
16326;SDS011;34812;49.846;9.610;2023-11-22T08:25:17;2.80;;;2.60;;
16326;SDS011;34812;49.846;9.610;2023-11-22T08:30:21;2.63;;;2.43;;
16326;SDS011;34812;49.846;9.610;2023-11-22T08:35:23;4.67;;;4.27;;
16326;SDS011;34812;49.846;9.610;2023-11-22T08:40:26;3.07;;;2.77;;
16326;SDS011;34812;49.846;9.610;2023-11-22T08:45:30;3.10;;;2.47;;
16326;SDS011;34812;49.846;9.610;2023-11-22T08:50:32;2.90;;;2.70;;
16326;SDS011;34812;49.846;9.610;2023-11-22T08:55:34;2.73;;;2.53;;
16326;SDS011;34812;49.846;9.610;2023-11-22T09:00:37;2.30;;;2.10;;
16326;SDS011;34812;49.846;9.610;2023-11-22T09:05:41;3.03;;;2.77;;
16326;SDS011;34812;49.846;9.610;2023-11-22T09:10:43;2.87;;;2.67;;
16326;SDS011;34812;49.846;9.610;2023-11-22T09:15:47;2.80;;;2.60;;
16326;SDS011;34812;49.846;9.610;2023-11-22T09:20:49;2.60;;;2.40;;
16326;SDS011;34812;49.846;9.610;2023-11-22T09:25:51;3.03;;;2.73;;
16326;SDS011;34812;49.846;9.610;2023-11-22T09:30:54;3.83;;;2.77;;
16326;SDS011;34812;49.846;9.610;2023-11-22T09:36:01;2.87;;;2.53;;
16326;SDS011;34812;49.846;9.610;2023-11-22T09:41:04;2.17;;;2.07;;
16326;SDS011;34812;49.846;9.610;2023-11-22T09:46:09;3.03;;;2.67;;
16326;SDS011;34812;49.846;9.610;2023-11-22T09:51:15;2.80;;;2.57;;
16326;SDS011;34812;49.846;9.610;2023-11-22T09:56:21;2.30;;;2.10;;
16326;SDS011;34812;49.846;9.610;2023-11-22T10:01:25;3.23;;;3.00;;
16326;SDS011;34812;49.846;9.610;2023-11-22T10:06:30;2.83;;;2.63;;
16326;SDS011;34812;49.846;9.610;2023-11-22T10:11:34;2.20;;;2.10;;
16326;SDS011;34812;49.846;9.610;2023-11-22T10:16:40;3.23;;;2.40;;
16326;SDS011;34812;49.846;9.610;2023-11-22T10:21:42;2.07;;;1.97;;
16326;SDS011;34812;49.846;9.610;2023-11-22T10:26:44;2.57;;;2.00;;
16326;SDS011;34812;49.846;9.610;2023-11-22T10:31:47;3.33;;;2.87;;
16326;SDS011;34812;49.846;9.610;2023-11-22T10:36:50;2.70;;;2.50;;
16326;SDS011;34812;49.846;9.610;2023-11-22T10:41:53;2.93;;;2.50;;
16326;SDS011;34812;49.846;9.610;2023-11-22T10:46:57;3.10;;;2.43;;
16326;SDS011;34812;49.846;9.610;2023-11-22T10:52:01;4.57;;;3.40;;
16326;SDS011;34812;49.846;9.610;2023-11-22T10:57:03;3.73;;;2.80;;
16326;SDS011;34812;49.846;9.610;2023-11-22T11:02:07;3.23;;;2.67;;
16326;SDS011;34812;49.846;9.610;2023-11-22T11:07:14;3.33;;;2.67;;
16326;SDS011;34812;49.846;9.610;2023-11-22T11:12:19;3.60;;;2.40;;
16326;SDS011;34812;49.846;9.610;2023-11-22T11:17:23;3.53;;;2.40;;
16326;SDS011;34812;49.846;9.610;2023-11-22T11:22:26;2.87;;;2.57;;
16326;SDS011;34812;49.846;9.610;2023-11-22T11:27:29;1.90;;;1.80;;
16326;SDS011;34812;49.846;9.610;2023-11-22T11:32:32;2.37;;;2.10;;
16326;SDS011;34812;49.846;9.610;2023-11-22T11:37:36;6.27;;;2.90;;
16326;SDS011;34812;49.846;9.610;2023-11-22T11:42:39;3.57;;;3.00;;
16326;SDS011;34812;49.846;9.610;2023-11-22T11:47:44;3.03;;;2.20;;
16326;SDS011;34812;49.846;9.610;2023-11-22T11:52:47;3.03;;;2.63;;
16326;SDS011;34812;49.846;9.610;2023-11-22T11:57:49;4.53;;;2.30;;
16326;SDS011;34812;49.846;9.610;2023-11-22T12:02:53;2.40;;;2.20;;
16326;SDS011;34812;49.846;9.610;2023-11-22T12:07:55;4.07;;;2.40;;
16326;SDS011;34812;49.846;9.610;2023-11-22T12:12:58;2.43;;;2.23;;
16326;SDS011;34812;49.846;9.610;2023-11-22T12:18:01;3.10;;;2.80;;
16326;SDS011;34812;49.846;9.610;2023-11-22T12:23:05;5.07;;;2.80;;
16326;SDS011;34812;49.846;9.610;2023-11-22T12:28:08;2.70;;;2.40;;
16326;SDS011;34812;49.846;9.610;2023-11-22T12:33:12;5.33;;;2.83;;
16326;SDS011;34812;49.846;9.610;2023-11-22T12:38:17;3.10;;;2.33;;
16326;SDS011;34812;49.846;9.610;2023-11-22T12:43:19;2.43;;;2.23;;
16326;SDS011;34812;49.846;9.610;2023-11-22T12:48:24;2.67;;;2.37;;
16326;SDS011;34812;49.846;9.610;2023-11-22T12:53:26;3.47;;;2.87;;
16326;SDS011;34812;49.846;9.610;2023-11-22T12:58:28;3.13;;;2.63;;
16326;SDS011;34812;49.846;9.610;2023-11-22T13:03:32;2.40;;;2.20;;
16326;SDS011;34812;49.846;9.610;2023-11-22T13:08:34;3.13;;;2.33;;
16326;SDS011;34812;49.846;9.610;2023-11-22T13:13:36;2.93;;;2.47;;
16326;SDS011;34812;49.846;9.610;2023-11-22T13:18:40;2.50;;;2.30;;
16326;SDS011;34812;49.846;9.610;2023-11-22T13:23:42;2.60;;;2.40;;
16326;SDS011;34812;49.846;9.610;2023-11-22T13:28:44;2.43;;;2.23;;
16326;SDS011;34812;49.846;9.610;2023-11-22T13:33:48;3.47;;;2.70;;
16326;SDS011;34812;49.846;9.610;2023-11-22T13:38:50;2.53;;;2.03;;
16326;SDS011;34812;49.846;9.610;2023-11-22T13:43:55;3.40;;;3.10;;
16326;SDS011;34812;49.846;9.610;2023-11-22T13:48:58;3.33;;;2.67;;
16326;SDS011;34812;49.846;9.610;2023-11-22T13:54:01;4.73;;;2.73;;
16326;SDS011;34812;49.846;9.610;2023-11-22T13:59:03;2.47;;;2.10;;
16326;SDS011;34812;49.846;9.610;2023-11-22T14:04:07;3.80;;;2.07;;
16326;SDS011;34812;49.846;9.610;2023-11-22T14:09:09;3.67;;;2.83;;
16326;SDS011;34812;49.846;9.610;2023-11-22T14:14:13;3.77;;;3.00;;
16326;SDS011;34812;49.846;9.610;2023-11-22T14:19:16;4.37;;;2.93;;
16326;SDS011;34812;49.846;9.610;2023-11-22T14:24:18;4.07;;;3.43;;
16326;SDS011;34812;49.846;9.610;2023-11-22T14:29:21;2.87;;;2.67;;
16326;SDS011;34812;49.846;9.610;2023-11-22T14:34:24;4.57;;;3.53;;
16326;SDS011;34812;49.846;9.610;2023-11-22T14:39:26;5.23;;;3.20;;
16326;SDS011;34812;49.846;9.610;2023-11-22T14:44:29;3.27;;;2.97;;
16326;SDS011;34812;49.846;9.610;2023-11-22T14:49:33;3.60;;;3.30;;
16326;SDS011;34812;49.846;9.610;2023-11-22T14:54:35;3.80;;;3.50;;
16326;SDS011;34812;49.846;9.610;2023-11-22T14:59:37;2.80;;;2.60;;
16326;SDS011;34812;49.846;9.610;2023-11-22T15:04:41;4.67;;;3.30;;
16326;SDS011;34812;49.846;9.610;2023-11-22T15:09:43;5.80;;;3.93;;
16326;SDS011;34812;49.846;9.610;2023-11-22T15:14:46;5.77;;;4.97;;
16326;SDS011;34812;49.846;9.610;2023-11-22T15:19:49;6.93;;;3.43;;
16326;SDS011;34812;49.846;9.610;2023-11-22T15:24:51;9.43;;;5.87;;
16326;SDS011;34812;49.846;9.610;2023-11-22T15:29:54;4.83;;;4.00;;
16326;SDS011;34812;49.846;9.610;2023-11-22T15:34:58;3.67;;;2.90;;
16326;SDS011;34812;49.846;9.610;2023-11-22T15:40:01;3.10;;;2.80;;
16326;SDS011;34812;49.846;9.610;2023-11-22T15:45:04;2.27;;;2.00;;
16326;SDS011;34812;49.846;9.610;2023-11-22T15:50:08;2.77;;;2.53;;
16326;SDS011;34812;49.846;9.610;2023-11-22T15:55:11;2.67;;;2.43;;
16326;SDS011;34812;49.846;9.610;2023-11-22T16:00:13;3.50;;;2.77;;
16326;SDS011;34812;49.846;9.610;2023-11-22T16:05:17;3.37;;;2.93;;
16326;SDS011;34812;49.846;9.610;2023-11-22T16:10:20;3.40;;;3.03;;
16326;SDS011;34812;49.846;9.610;2023-11-22T16:15:22;2.90;;;2.70;;
16326;SDS011;34812;49.846;9.610;2023-11-22T16:20:25;2.77;;;2.67;;
16326;SDS011;34812;49.846;9.610;2023-11-22T16:25:27;3.33;;;3.03;;
16326;SDS011;34812;49.846;9.610;2023-11-22T16:30:29;2.80;;;2.60;;
16326;SDS011;34812;49.846;9.610;2023-11-22T16:35:33;2.80;;;2.60;;
16326;SDS011;34812;49.846;9.610;2023-11-22T16:40:36;2.50;;;2.33;;
16326;SDS011;34812;49.846;9.610;2023-11-22T16:45:38;2.97;;;2.83;;
16326;SDS011;34812;49.846;9.610;2023-11-22T16:50:42;2.20;;;2.10;;
16326;SDS011;34812;49.846;9.610;2023-11-22T16:55:44;2.50;;;2.30;;
16326;SDS011;34812;49.846;9.610;2023-11-22T17:00:46;2.30;;;2.20;;
16326;SDS011;34812;49.846;9.610;2023-11-22T17:05:50;3.23;;;2.50;;
16326;SDS011;34812;49.846;9.610;2023-11-22T17:10:52;3.63;;;2.97;;
16326;SDS011;34812;49.846;9.610;2023-11-22T17:15:54;2.33;;;2.00;;
16326;SDS011;34812;49.846;9.610;2023-11-22T17:20:58;2.77;;;2.57;;
16326;SDS011;34812;49.846;9.610;2023-11-22T17:26:00;3.37;;;2.60;;
16326;SDS011;34812;49.846;9.610;2023-11-22T17:31:03;3.90;;;3.60;;
16326;SDS011;34812;49.846;9.610;2023-11-22T17:36:07;2.97;;;2.77;;
16326;SDS011;34812;49.846;9.610;2023-11-22T17:41:09;4.13;;;2.47;;
16326;SDS011;34812;49.846;9.610;2023-11-22T17:46:11;3.20;;;3.00;;
16326;SDS011;34812;49.846;9.610;2023-11-22T17:51:15;3.57;;;3.27;;
16326;SDS011;34812;49.846;9.610;2023-11-22T17:56:17;4.60;;;4.03;;
16326;SDS011;34812;49.846;9.610;2023-11-22T18:01:19;3.30;;;3.03;;
16326;SDS011;34812;49.846;9.610;2023-11-22T18:06:22;6.13;;;3.97;;
16326;SDS011;34812;49.846;9.610;2023-11-22T18:11:24;3.83;;;3.53;;
16326;SDS011;34812;49.846;9.610;2023-11-22T18:16:27;3.50;;;2.60;;
16326;SDS011;34812;49.846;9.610;2023-11-22T18:21:30;2.73;;;2.57;;
16326;SDS011;34812;49.846;9.610;2023-11-22T18:26:33;2.83;;;2.67;;
16326;SDS011;34812;49.846;9.610;2023-11-22T18:31:35;3.40;;;3.20;;
16326;SDS011;34812;49.846;9.610;2023-11-22T18:36:39;8.23;;;5.07;;
16326;SDS011;34812;49.846;9.610;2023-11-22T18:41:41;9.40;;;3.90;;
16326;SDS011;34812;49.846;9.610;2023-11-22T18:46:43;3.53;;;3.23;;
16326;SDS011;34812;49.846;9.610;2023-11-22T18:51:47;3.43;;;3.13;;
16326;SDS011;34812;49.846;9.610;2023-11-22T18:56:51;4.50;;;3.00;;
16326;SDS011;34812;49.846;9.610;2023-11-22T19:01:54;5.03;;;3.57;;
16326;SDS011;34812;49.846;9.610;2023-11-22T19:06:59;9.77;;;5.03;;
16326;SDS011;34812;49.846;9.610;2023-11-22T19:12:01;5.83;;;4.53;;
16326;SDS011;34812;49.846;9.610;2023-11-22T19:17:03;3.63;;;3.33;;
16326;SDS011;34812;49.846;9.610;2023-11-22T19:22:07;4.73;;;4.17;;
16326;SDS011;34812;49.846;9.610;2023-11-22T19:27:09;4.87;;;3.60;;
16326;SDS011;34812;49.846;9.610;2023-11-22T19:32:11;10.60;;;5.60;;
16326;SDS011;34812;49.846;9.610;2023-11-22T19:37:19;4.83;;;4.17;;
16326;SDS011;34812;49.846;9.610;2023-11-22T19:42:23;6.33;;;4.63;;
16326;SDS011;34812;49.846;9.610;2023-11-22T19:47:26;3.97;;;3.60;;
16326;SDS011;34812;49.846;9.610;2023-11-22T19:52:29;3.60;;;3.27;;
16326;SDS011;34812;49.846;9.610;2023-11-22T19:57:31;4.00;;;3.70;;
16326;SDS011;34812;49.846;9.610;2023-11-22T20:02:33;5.40;;;4.70;;
16326;SDS011;34812;49.846;9.610;2023-11-22T20:07:37;6.33;;;4.80;;
16326;SDS011;34812;49.846;9.610;2023-11-22T20:12:39;4.63;;;4.03;;
16326;SDS011;34812;49.846;9.610;2023-11-22T20:17:42;7.23;;;2.93;;
16326;SDS011;34812;49.846;9.610;2023-11-22T20:22:46;3.83;;;3.40;;
16326;SDS011;34812;49.846;9.610;2023-11-22T20:27:48;8.70;;;4.77;;
16326;SDS011;34812;49.846;9.610;2023-11-22T20:32:51;7.90;;;5.57;;
16326;SDS011;34812;49.846;9.610;2023-11-22T20:37:54;7.20;;;4.70;;
16326;SDS011;34812;49.846;9.610;2023-11-22T20:42:56;3.50;;;3.10;;
16326;SDS011;34812;49.846;9.610;2023-11-22T20:47:59;13.77;;;4.77;;
16326;SDS011;34812;49.846;9.610;2023-11-22T20:53:02;6.03;;;4.90;;
16326;SDS011;34812;49.846;9.610;2023-11-22T20:58:05;6.00;;;5.40;;
16326;SDS011;34812;49.846;9.610;2023-11-22T21:03:07;4.30;;;4.00;;
16326;SDS011;34812;49.846;9.610;2023-11-22T21:08:10;5.93;;;5.40;;
16326;SDS011;34812;49.846;9.610;2023-11-22T21:13:12;5.37;;;4.87;;
16326;SDS011;34812;49.846;9.610;2023-11-22T21:18:14;5.87;;;4.30;;
16326;SDS011;34812;49.846;9.610;2023-11-22T21:23:18;3.90;;;3.57;;
16326;SDS011;34812;49.846;9.610;2023-11-22T21:28:20;6.23;;;4.73;;
16326;SDS011;34812;49.846;9.610;2023-11-22T21:33:22;6.10;;;4.50;;
16326;SDS011;34812;49.846;9.610;2023-11-22T21:38:25;3.63;;;3.30;;
16326;SDS011;34812;49.846;9.610;2023-11-22T21:43:30;5.47;;;4.20;;
16326;SDS011;34812;49.846;9.610;2023-11-22T21:48:33;10.10;;;4.10;;
16326;SDS011;34812;49.846;9.610;2023-11-22T21:53:38;3.87;;;3.47;;
16326;SDS011;34812;49.846;9.610;2023-11-22T21:58:41;6.70;;;4.77;;
16326;SDS011;34812;49.846;9.610;2023-11-22T22:03:44;7.07;;;4.77;;
16326;SDS011;34812;49.846;9.610;2023-11-22T22:08:47;4.83;;;4.27;;
16326;SDS011;34812;49.846;9.610;2023-11-22T22:13:49;4.73;;;4.03;;
16326;SDS011;34812;49.846;9.610;2023-11-22T22:18:51;5.33;;;4.83;;
16326;SDS011;34812;49.846;9.610;2023-11-22T22:23:55;6.17;;;5.57;;
16326;SDS011;34812;49.846;9.610;2023-11-22T22:28:57;6.20;;;4.37;;
16326;SDS011;34812;49.846;9.610;2023-11-22T22:33:59;4.07;;;3.43;;
16326;SDS011;34812;49.846;9.610;2023-11-22T22:39:03;7.90;;;5.03;;
16326;SDS011;34812;49.846;9.610;2023-11-22T22:44:05;9.53;;;6.73;;
16326;SDS011;34812;49.846;9.610;2023-11-22T22:49:07;5.27;;;3.57;;
16326;SDS011;34812;49.846;9.610;2023-11-22T22:54:11;5.10;;;4.63;;
16326;SDS011;34812;49.846;9.610;2023-11-22T22:59:14;10.37;;;4.30;;
16326;SDS011;34812;49.846;9.610;2023-11-22T23:04:16;5.97;;;4.10;;
16326;SDS011;34812;49.846;9.610;2023-11-22T23:09:20;4.27;;;3.87;;
16326;SDS011;34812;49.846;9.610;2023-11-22T23:14:22;3.33;;;3.10;;
16326;SDS011;34812;49.846;9.610;2023-11-22T23:19:24;4.83;;;3.93;;
16326;SDS011;34812;49.846;9.610;2023-11-22T23:24:29;5.60;;;3.87;;
16326;SDS011;34812;49.846;9.610;2023-11-22T23:29:32;6.30;;;4.70;;
16326;SDS011;34812;49.846;9.610;2023-11-22T23:34:37;9.60;;;4.00;;
16326;SDS011;34812;49.846;9.610;2023-11-22T23:39:42;5.57;;;4.27;;
16326;SDS011;34812;49.846;9.610;2023-11-22T23:44:44;5.27;;;3.40;;
16326;SDS011;34812;49.846;9.610;2023-11-22T23:49:46;4.50;;;3.97;;
16326;SDS011;34812;49.846;9.610;2023-11-22T23:54:50;4.73;;;4.33;;
16326;SDS011;34812;49.846;9.610;2023-11-22T23:59:52;4.70;;;4.07;;
